Accueil
METAR-TAF:

METAR-TAF

Aéroports :

Anvers, Belgique

Aéroport d'Anvers

latitude: 51-12N, longitude: 004-28E, altitude: 12 m

Observation

Le bulletin a été fait il y a 27 minutes, à 08:20 UTC
Vent 9 kt de ouest, variant entre ouest/sud-ouest et nord-ouest
Température 18°C
Humidité 68%
Pression 1018 hPa
Visibilité 10 km ou plus
pas de nuages en-dessous de 1500 mètres et pas de cumulonimbus.

METAR: EBAW 230820Z 27009KT 240V310 CAVOK 18/12 Q1018 NOSIG

Heure: 10:47 (08:47 UTC)

Prévision

Le bulletin a été fait il y a 17 minutes, à 08:30 UTC
Prévision valable du 23 à 09 UTC au 23 à 18 UTC
Vent 10 kt de nord-ouest
Visibilité 10 km ou plus
Nuages épars à une hauteur de 2500 ft
Nuages fragmentés à une hauteur de 3500 ft

TAF: EBAW 230830Z 2309/2318 31010KT 9999 SCT025 BKN035

Observations et prévisions météorologiques de plus de 4000 aéroports (messages METAR et TAF).

Les stations disponibles sont représentées par des disques jaunes et rouges sur la carte.

Passer la souris dessus pour voir le nom de la station.

Cliquer dessus pour voir les observations et prévisions météorologiques.

Pour changer de carte: cliquez sur les boutons verts avec une croix noire pour zoomer, sur le bouton vert avec un tiret pour effectuer un zoom arrière, ou sur les flèches vertes pour les cartes adjacentes.


METAR-TAF: